sensor_id;sensor_type;location;lat;lon;timestamp;P1;durP1;ratioP1;P2;durP2;ratioP2
5742;SDS011;2896;53.500;10.020;2022-07-23T00:00:56;5.50;;;1.90;;
5742;SDS011;2896;53.500;10.020;2022-07-23T00:03:23;4.73;;;2.07;;
5742;SDS011;2896;53.500;10.020;2022-07-23T00:05:49;1.83;;;1.60;;
5742;SDS011;2896;53.500;10.020;2022-07-23T00:08:16;3.70;;;1.53;;
5742;SDS011;2896;53.500;10.020;2022-07-23T00:10:44;1.83;;;1.73;;
5742;SDS011;2896;53.500;10.020;2022-07-23T00:13:10;8.20;;;1.77;;
5742;SDS011;2896;53.500;10.020;2022-07-23T00:15:37;3.20;;;1.53;;
5742;SDS011;2896;53.500;10.020;2022-07-23T00:18:04;4.93;;;1.93;;
5742;SDS011;2896;53.500;10.020;2022-07-23T00:20:31;4.77;;;1.73;;
5742;SDS011;2896;53.500;10.020;2022-07-23T00:22:57;14.80;;;2.30;;
5742;SDS011;2896;53.500;10.020;2022-07-23T00:25:24;3.70;;;1.67;;
5742;SDS011;2896;53.500;10.020;2022-07-23T00:27:53;3.17;;;1.30;;
5742;SDS011;2896;53.500;10.020;2022-07-23T00:30:20;1.93;;;1.17;;
5742;SDS011;2896;53.500;10.020;2022-07-23T00:32:47;1.43;;;1.30;;
5742;SDS011;2896;53.500;10.020;2022-07-23T00:35:14;9.37;;;1.60;;
5742;SDS011;2896;53.500;10.020;2022-07-23T00:37:42;1.63;;;1.50;;
5742;SDS011;2896;53.500;10.020;2022-07-23T00:40:09;4.93;;;1.40;;
5742;SDS011;2896;53.500;10.020;2022-07-23T00:42:37;8.50;;;2.90;;
5742;SDS011;2896;53.500;10.020;2022-07-23T00:45:05;3.07;;;1.53;;
5742;SDS011;2896;53.500;10.020;2022-07-23T00:47:33;5.13;;;1.93;;
5742;SDS011;2896;53.500;10.020;2022-07-23T00:50:00;5.87;;;1.77;;
5742;SDS011;2896;53.500;10.020;2022-07-23T00:52:27;5.17;;;2.00;;
5742;SDS011;2896;53.500;10.020;2022-07-23T00:54:53;3.93;;;1.80;;
5742;SDS011;2896;53.500;10.020;2022-07-23T00:57:20;2.23;;;1.73;;
5742;SDS011;2896;53.500;10.020;2022-07-23T00:59:47;5.10;;;2.10;;
5742;SDS011;2896;53.500;10.020;2022-07-23T01:02:15;4.37;;;1.87;;
5742;SDS011;2896;53.500;10.020;2022-07-23T01:04:42;4.97;;;2.03;;
5742;SDS011;2896;53.500;10.020;2022-07-23T01:07:08;4.20;;;1.80;;
5742;SDS011;2896;53.500;10.020;2022-07-23T01:09:35;3.80;;;1.70;;
5742;SDS011;2896;53.500;10.020;2022-07-23T01:12:03;4.10;;;2.07;;
5742;SDS011;2896;53.500;10.020;2022-07-23T01:14:30;4.17;;;1.80;;
5742;SDS011;2896;53.500;10.020;2022-07-23T01:16:57;6.47;;;1.50;;
5742;SDS011;2896;53.500;10.020;2022-07-23T01:19:25;4.13;;;1.70;;
5742;SDS011;2896;53.500;10.020;2022-07-23T01:21:51;1.37;;;1.27;;
5742;SDS011;2896;53.500;10.020;2022-07-23T01:24:21;8.60;;;1.77;;
5742;SDS011;2896;53.500;10.020;2022-07-23T01:26:48;2.80;;;1.70;;
5742;SDS011;2896;53.500;10.020;2022-07-23T01:29:15;2.17;;;1.63;;
5742;SDS011;2896;53.500;10.020;2022-07-23T01:31:42;3.53;;;1.53;;
5742;SDS011;2896;53.500;10.020;2022-07-23T01:34:09;1.73;;;1.63;;
5742;SDS011;2896;53.500;10.020;2022-07-23T01:36:36;1.83;;;1.50;;
5742;SDS011;2896;53.500;10.020;2022-07-23T01:39:03;3.80;;;1.50;;
5742;SDS011;2896;53.500;10.020;2022-07-23T01:41:32;3.83;;;1.60;;
5742;SDS011;2896;53.500;10.020;2022-07-23T01:43:59;5.00;;;1.70;;
5742;SDS011;2896;53.500;10.020;2022-07-23T01:46:26;2.30;;;1.57;;
5742;SDS011;2896;53.500;10.020;2022-07-23T01:48:53;3.60;;;1.37;;
5742;SDS011;2896;53.500;10.020;2022-07-23T01:51:19;4.13;;;1.83;;
5742;SDS011;2896;53.500;10.020;2022-07-23T01:53:46;2.40;;;1.50;;
5742;SDS011;2896;53.500;10.020;2022-07-23T01:56:13;4.53;;;2.03;;
5742;SDS011;2896;53.500;10.020;2022-07-23T01:58:41;3.33;;;2.13;;
5742;SDS011;2896;53.500;10.020;2022-07-23T02:01:08;4.60;;;1.90;;
5742;SDS011;2896;53.500;10.020;2022-07-23T02:03:35;3.33;;;1.60;;
5742;SDS011;2896;53.500;10.020;2022-07-23T02:06:02;1.60;;;1.50;;
5742;SDS011;2896;53.500;10.020;2022-07-23T02:08:28;2.43;;;1.90;;
5742;SDS011;2896;53.500;10.020;2022-07-23T02:10:55;2.70;;;2.00;;
5742;SDS011;2896;53.500;10.020;2022-07-23T02:13:22;2.30;;;2.10;;
5742;SDS011;2896;53.500;10.020;2022-07-23T02:15:50;3.93;;;1.90;;
5742;SDS011;2896;53.500;10.020;2022-07-23T02:18:16;6.07;;;2.03;;
5742;SDS011;2896;53.500;10.020;2022-07-23T02:20:43;4.67;;;2.30;;
5742;SDS011;2896;53.500;10.020;2022-07-23T02:23:10;2.03;;;1.83;;
5742;SDS011;2896;53.500;10.020;2022-07-23T02:25:36;7.40;;;2.23;;
5742;SDS011;2896;53.500;10.020;2022-07-23T02:28:03;3.10;;;1.63;;
5742;SDS011;2896;53.500;10.020;2022-07-23T02:30:30;1.83;;;1.70;;
5742;SDS011;2896;53.500;10.020;2022-07-23T02:32:58;7.30;;;2.10;;
5742;SDS011;2896;53.500;10.020;2022-07-23T02:35:24;5.40;;;1.93;;
5742;SDS011;2896;53.500;10.020;2022-07-23T02:37:51;6.90;;;2.13;;
5742;SDS011;2896;53.500;10.020;2022-07-23T02:40:18;4.00;;;2.00;;
5742;SDS011;2896;53.500;10.020;2022-07-23T02:42:45;3.83;;;1.97;;
5742;SDS011;2896;53.500;10.020;2022-07-23T02:45:12;2.37;;;1.70;;
5742;SDS011;2896;53.500;10.020;2022-07-23T02:47:38;2.33;;;1.80;;
5742;SDS011;2896;53.500;10.020;2022-07-23T02:50:07;2.40;;;1.57;;
5742;SDS011;2896;53.500;10.020;2022-07-23T02:52:34;4.83;;;1.83;;
5742;SDS011;2896;53.500;10.020;2022-07-23T02:55:00;3.03;;;1.40;;
5742;SDS011;2896;53.500;10.020;2022-07-23T02:57:27;2.07;;;1.90;;
5742;SDS011;2896;53.500;10.020;2022-07-23T02:59:54;4.00;;;1.80;;
5742;SDS011;2896;53.500;10.020;2022-07-23T03:02:20;4.60;;;2.33;;
5742;SDS011;2896;53.500;10.020;2022-07-23T03:04:47;1.77;;;1.70;;
5742;SDS011;2896;53.500;10.020;2022-07-23T03:07:16;3.10;;;1.90;;
5742;SDS011;2896;53.500;10.020;2022-07-23T03:09:43;3.73;;;2.00;;
5742;SDS011;2896;53.500;10.020;2022-07-23T03:12:09;4.20;;;2.03;;
5742;SDS011;2896;53.500;10.020;2022-07-23T03:14:36;1.83;;;1.70;;
5742;SDS011;2896;53.500;10.020;2022-07-23T03:17:03;3.33;;;2.10;;
5742;SDS011;2896;53.500;10.020;2022-07-23T03:19:29;4.73;;;2.30;;
5742;SDS011;2896;53.500;10.020;2022-07-23T03:21:56;2.70;;;2.30;;
5742;SDS011;2896;53.500;10.020;2022-07-23T03:24:24;3.50;;;2.47;;
5742;SDS011;2896;53.500;10.020;2022-07-23T03:27:11;2.60;;;2.13;;
5742;SDS011;2896;53.500;10.020;2022-07-23T03:29:37;1.87;;;1.77;;
5742;SDS011;2896;53.500;10.020;2022-07-23T03:32:04;2.87;;;2.10;;
5742;SDS011;2896;53.500;10.020;2022-07-23T03:34:31;3.13;;;2.83;;
5742;SDS011;2896;53.500;10.020;2022-07-23T03:36:58;2.70;;;2.47;;
5742;SDS011;2896;53.500;10.020;2022-07-23T03:39:26;5.80;;;2.00;;
5742;SDS011;2896;53.500;10.020;2022-07-23T03:41:52;9.10;;;2.53;;
5742;SDS011;2896;53.500;10.020;2022-07-23T03:44:19;6.63;;;2.47;;
5742;SDS011;2896;53.500;10.020;2022-07-23T03:46:45;3.80;;;2.60;;
5742;SDS011;2896;53.500;10.020;2022-07-23T03:49:12;5.27;;;2.30;;
5742;SDS011;2896;53.500;10.020;2022-07-23T03:51:39;4.30;;;2.40;;
5742;SDS011;2896;53.500;10.020;2022-07-23T03:54:05;4.50;;;2.60;;
5742;SDS011;2896;53.500;10.020;2022-07-23T03:56:33;3.60;;;2.10;;
5742;SDS011;2896;53.500;10.020;2022-07-23T03:59:00;2.47;;;1.93;;
5742;SDS011;2896;53.500;10.020;2022-07-23T04:01:27;3.00;;;2.67;;
5742;SDS011;2896;53.500;10.020;2022-07-23T04:03:54;13.17;;;2.70;;
5742;SDS011;2896;53.500;10.020;2022-07-23T04:06:20;4.47;;;2.63;;
5742;SDS011;2896;53.500;10.020;2022-07-23T04:08:47;3.10;;;2.70;;
5742;SDS011;2896;53.500;10.020;2022-07-23T04:11:13;5.47;;;3.17;;
5742;SDS011;2896;53.500;10.020;2022-07-23T04:13:41;3.13;;;2.80;;
5742;SDS011;2896;53.500;10.020;2022-07-23T04:16:08;4.00;;;3.60;;
5742;SDS011;2896;53.500;10.020;2022-07-23T04:18:34;3.13;;;2.80;;
5742;SDS011;2896;53.500;10.020;2022-07-23T04:21:01;2.90;;;2.70;;
5742;SDS011;2896;53.500;10.020;2022-07-23T04:23:28;8.30;;;2.63;;
5742;SDS011;2896;53.500;10.020;2022-07-23T04:25:54;5.20;;;2.60;;
5742;SDS011;2896;53.500;10.020;2022-07-23T04:28:21;6.53;;;3.20;;
5742;SDS011;2896;53.500;10.020;2022-07-23T04:30:49;4.67;;;3.10;;
5742;SDS011;2896;53.500;10.020;2022-07-23T04:33:16;2.77;;;2.57;;
5742;SDS011;2896;53.500;10.020;2022-07-23T04:35:42;9.83;;;3.40;;
5742;SDS011;2896;53.500;10.020;2022-07-23T04:38:09;8.33;;;3.33;;
5742;SDS011;2896;53.500;10.020;2022-07-23T04:40:36;6.10;;;3.47;;
5742;SDS011;2896;53.500;10.020;2022-07-23T04:43:02;7.23;;;3.77;;
5742;SDS011;2896;53.500;10.020;2022-07-23T04:45:30;2.47;;;2.37;;
5742;SDS011;2896;53.500;10.020;2022-07-23T04:47:58;5.00;;;3.43;;
5742;SDS011;2896;53.500;10.020;2022-07-23T04:50:24;8.47;;;3.60;;
5742;SDS011;2896;53.500;10.020;2022-07-23T04:52:51;10.17;;;3.67;;
5742;SDS011;2896;53.500;10.020;2022-07-23T04:55:17;3.60;;;3.30;;
5742;SDS011;2896;53.500;10.020;2022-07-23T04:57:44;3.40;;;3.20;;
5742;SDS011;2896;53.500;10.020;2022-07-23T05:00:11;4.90;;;3.40;;
5742;SDS011;2896;53.500;10.020;2022-07-23T05:02:38;8.93;;;3.90;;
5742;SDS011;2896;53.500;10.020;2022-07-23T05:05:06;6.73;;;3.87;;
5742;SDS011;2896;53.500;10.020;2022-07-23T05:07:33;5.33;;;4.63;;
5742;SDS011;2896;53.500;10.020;2022-07-23T05:10:00;12.70;;;4.53;;
5742;SDS011;2896;53.500;10.020;2022-07-23T05:12:26;5.60;;;3.97;;
5742;SDS011;2896;53.500;10.020;2022-07-23T05:14:53;9.20;;;4.70;;
5742;SDS011;2896;53.500;10.020;2022-07-23T05:17:20;6.37;;;3.70;;
5742;SDS011;2896;53.500;10.020;2022-07-23T05:19:46;10.07;;;4.63;;
5742;SDS011;2896;53.500;10.020;2022-07-23T05:22:14;9.53;;;4.47;;
5742;SDS011;2896;53.500;10.020;2022-07-23T05:24:41;6.83;;;3.73;;
5742;SDS011;2896;53.500;10.020;2022-07-23T05:27:08;7.90;;;3.90;;
5742;SDS011;2896;53.500;10.020;2022-07-23T05:29:34;15.87;;;4.27;;
5742;SDS011;2896;53.500;10.020;2022-07-23T05:32:01;6.27;;;4.10;;
5742;SDS011;2896;53.500;10.020;2022-07-23T05:34:28;7.20;;;3.70;;
5742;SDS011;2896;53.500;10.020;2022-07-23T05:36:54;11.33;;;4.47;;
5742;SDS011;2896;53.500;10.020;2022-07-23T05:39:22;7.47;;;3.77;;
5742;SDS011;2896;53.500;10.020;2022-07-23T05:41:49;3.63;;;3.43;;
5742;SDS011;2896;53.500;10.020;2022-07-23T05:44:15;4.07;;;3.70;;
5742;SDS011;2896;53.500;10.020;2022-07-23T05:46:42;3.97;;;3.67;;
5742;SDS011;2896;53.500;10.020;2022-07-23T05:49:09;3.40;;;3.00;;
5742;SDS011;2896;53.500;10.020;2022-07-23T05:51:36;3.07;;;2.90;;
5742;SDS011;2896;53.500;10.020;2022-07-23T05:54:02;3.43;;;3.23;;
5742;SDS011;2896;53.500;10.020;2022-07-23T05:56:30;6.00;;;3.57;;
5742;SDS011;2896;53.500;10.020;2022-07-23T05:58:57;2.83;;;2.73;;
5742;SDS011;2896;53.500;10.020;2022-07-23T06:01:24;5.03;;;4.13;;
5742;SDS011;2896;53.500;10.020;2022-07-23T06:03:50;6.60;;;3.40;;
5742;SDS011;2896;53.500;10.020;2022-07-23T06:06:17;3.40;;;3.10;;
5742;SDS011;2896;53.500;10.020;2022-07-23T06:08:43;2.50;;;2.30;;
5742;SDS011;2896;53.500;10.020;2022-07-23T06:11:10;9.70;;;2.90;;
5742;SDS011;2896;53.500;10.020;2022-07-23T06:13:38;1.93;;;1.83;;
5742;SDS011;2896;53.500;10.020;2022-07-23T06:16:05;7.13;;;1.77;;
5742;SDS011;2896;53.500;10.020;2022-07-23T06:18:31;1.90;;;1.80;;
5742;SDS011;2896;53.500;10.020;2022-07-23T06:20:58;1.80;;;1.70;;
5742;SDS011;2896;53.500;10.020;2022-07-23T06:23:25;1.67;;;1.50;;
5742;SDS011;2896;53.500;10.020;2022-07-23T06:25:52;2.23;;;1.57;;
5742;SDS011;2896;53.500;10.020;2022-07-23T06:28:19;3.07;;;1.97;;
5742;SDS011;2896;53.500;10.020;2022-07-23T06:30:47;3.10;;;1.80;;
5742;SDS011;2896;53.500;10.020;2022-07-23T06:33:14;7.70;;;2.23;;
5742;SDS011;2896;53.500;10.020;2022-07-23T06:35:41;2.07;;;1.97;;
5742;SDS011;2896;53.500;10.020;2022-07-23T06:38:07;3.43;;;1.63;;
5742;SDS011;2896;53.500;10.020;2022-07-23T06:40:34;2.50;;;1.90;;
5742;SDS011;2896;53.500;10.020;2022-07-23T06:43:00;2.00;;;1.90;;
5742;SDS011;2896;53.500;10.020;2022-07-23T06:45:27;1.90;;;1.80;;
5742;SDS011;2896;53.500;10.020;2022-07-23T06:47:55;2.20;;;2.10;;
5742;SDS011;2896;53.500;10.020;2022-07-23T06:50:22;2.83;;;2.20;;
5742;SDS011;2896;53.500;10.020;2022-07-23T06:52:49;2.57;;;2.47;;
5742;SDS011;2896;53.500;10.020;2022-07-23T06:55:15;3.07;;;2.00;;
5742;SDS011;2896;53.500;10.020;2022-07-23T06:57:42;7.90;;;2.10;;
5742;SDS011;2896;53.500;10.020;2022-07-23T07:00:09;2.87;;;2.10;;
5742;SDS011;2896;53.500;10.020;2022-07-23T07:02:36;5.50;;;2.60;;
5742;SDS011;2896;53.500;10.020;2022-07-23T07:05:05;6.30;;;2.57;;
5742;SDS011;2896;53.500;10.020;2022-07-23T07:07:32;2.37;;;2.13;;
5742;SDS011;2896;53.500;10.020;2022-07-23T07:09:59;3.53;;;2.00;;
5742;SDS011;2896;53.500;10.020;2022-07-23T07:12:26;2.20;;;1.97;;
5742;SDS011;2896;53.500;10.020;2022-07-23T07:14:52;6.33;;;2.50;;
5742;SDS011;2896;53.500;10.020;2022-07-23T07:17:19;6.10;;;2.60;;
5742;SDS011;2896;53.500;10.020;2022-07-23T07:19:46;3.67;;;2.17;;
5742;SDS011;2896;53.500;10.020;2022-07-23T07:22:14;2.70;;;2.17;;
5742;SDS011;2896;53.500;10.020;2022-07-23T07:24:40;2.80;;;2.00;;
5742;SDS011;2896;53.500;10.020;2022-07-23T07:27:07;3.70;;;1.47;;
5742;SDS011;2896;53.500;10.020;2022-07-23T07:29:34;2.80;;;1.23;;
5742;SDS011;2896;53.500;10.020;2022-07-23T07:32:00;4.93;;;1.90;;
5742;SDS011;2896;53.500;10.020;2022-07-23T07:34:27;3.03;;;1.23;;
5742;SDS011;2896;53.500;10.020;2022-07-23T07:36:53;1.47;;;1.23;;
5742;SDS011;2896;53.500;10.020;2022-07-23T07:39:21;2.63;;;1.30;;
5742;SDS011;2896;53.500;10.020;2022-07-23T07:41:48;1.50;;;1.40;;
5742;SDS011;2896;53.500;10.020;2022-07-23T07:44:15;2.20;;;1.40;;
5742;SDS011;2896;53.500;10.020;2022-07-23T07:46:44;3.13;;;1.43;;
5742;SDS011;2896;53.500;10.020;2022-07-23T07:49:11;1.47;;;1.37;;
5742;SDS011;2896;53.500;10.020;2022-07-23T07:51:42;1.57;;;1.43;;
5742;SDS011;2896;53.500;10.020;2022-07-23T07:54:08;3.90;;;1.47;;
5742;SDS011;2896;53.500;10.020;2022-07-23T07:56:36;4.83;;;1.30;;
5742;SDS011;2896;53.500;10.020;2022-07-23T07:59:03;2.47;;;1.40;;
5742;SDS011;2896;53.500;10.020;2022-07-23T08:01:30;2.03;;;1.33;;
5742;SDS011;2896;53.500;10.020;2022-07-23T08:03:56;4.80;;;1.60;;
5742;SDS011;2896;53.500;10.020;2022-07-23T08:06:23;2.57;;;1.50;;
5742;SDS011;2896;53.500;10.020;2022-07-23T08:08:50;1.07;;;1.07;;
5742;SDS011;2896;53.500;10.020;2022-07-23T08:11:16;3.70;;;1.50;;
5742;SDS011;2896;53.500;10.020;2022-07-23T08:13:44;0.90;;;0.90;;
5742;SDS011;2896;53.500;10.020;2022-07-23T08:16:11;2.47;;;0.97;;
5742;SDS011;2896;53.500;10.020;2022-07-23T08:18:37;24.27;;;1.73;;
5742;SDS011;2896;53.500;10.020;2022-07-23T08:21:04;3.20;;;1.60;;
5742;SDS011;2896;53.500;10.020;2022-07-23T08:23:31;1.63;;;1.33;;
5742;SDS011;2896;53.500;10.020;2022-07-23T08:25:58;1.03;;;1.03;;
5742;SDS011;2896;53.500;10.020;2022-07-23T08:28:25;2.47;;;1.20;;
5742;SDS011;2896;53.500;10.020;2022-07-23T08:30:54;1.87;;;1.73;;
5742;SDS011;2896;53.500;10.020;2022-07-23T08:33:20;4.30;;;1.27;;
5742;SDS011;2896;53.500;10.020;2022-07-23T08:35:47;0.80;;;0.80;;
5742;SDS011;2896;53.500;10.020;2022-07-23T08:38:18;1.70;;;0.90;;
5742;SDS011;2896;53.500;10.020;2022-07-23T08:40:47;2.87;;;1.20;;
5742;SDS011;2896;53.500;10.020;2022-07-23T08:43:15;1.57;;;1.00;;
5742;SDS011;2896;53.500;10.020;2022-07-23T08:45:44;1.27;;;0.97;;
5742;SDS011;2896;53.500;10.020;2022-07-23T08:48:13;1.50;;;1.00;;
5742;SDS011;2896;53.500;10.020;2022-07-23T08:50:42;2.63;;;1.20;;
5742;SDS011;2896;53.500;10.020;2022-07-23T08:53:10;1.37;;;0.97;;
5742;SDS011;2896;53.500;10.020;2022-07-23T08:55:37;1.37;;;1.23;;
5742;SDS011;2896;53.500;10.020;2022-07-23T08:58:04;1.97;;;1.30;;
5742;SDS011;2896;53.500;10.020;2022-07-23T09:00:31;3.80;;;1.10;;
5742;SDS011;2896;53.500;10.020;2022-07-23T09:02:58;0.80;;;0.80;;
5742;SDS011;2896;53.500;10.020;2022-07-23T09:05:26;0.90;;;0.90;;
5742;SDS011;2896;53.500;10.020;2022-07-23T09:08:06;1.37;;;1.10;;
5742;SDS011;2896;53.500;10.020;2022-07-23T09:10:47;2.93;;;1.03;;
5742;SDS011;2896;53.500;10.020;2022-07-23T09:13:23;0.83;;;0.83;;
5742;SDS011;2896;53.500;10.020;2022-07-23T09:15:52;1.33;;;0.93;;
5742;SDS011;2896;53.500;10.020;2022-07-23T09:18:27;1.00;;;1.00;;
5742;SDS011;2896;53.500;10.020;2022-07-23T09:21:06;1.60;;;1.27;;
5742;SDS011;2896;53.500;10.020;2022-07-23T09:23:37;1.20;;;1.10;;
5742;SDS011;2896;53.500;10.020;2022-07-23T09:26:16;2.20;;;1.10;;
5742;SDS011;2896;53.500;10.020;2022-07-23T09:28:52;1.57;;;1.00;;
5742;SDS011;2896;53.500;10.020;2022-07-23T09:31:21;1.33;;;1.00;;
5742;SDS011;2896;53.500;10.020;2022-07-23T09:33:49;1.20;;;1.20;;
5742;SDS011;2896;53.500;10.020;2022-07-23T09:36:22;1.17;;;1.10;;
5742;SDS011;2896;53.500;10.020;2022-07-23T09:38:53;2.90;;;0.80;;
5742;SDS011;2896;53.500;10.020;2022-07-23T09:41:20;2.37;;;1.17;;
5742;SDS011;2896;53.500;10.020;2022-07-23T09:43:48;0.80;;;0.77;;
5742;SDS011;2896;53.500;10.020;2022-07-23T09:46:21;0.77;;;0.77;;
5742;SDS011;2896;53.500;10.020;2022-07-23T09:48:49;0.80;;;0.80;;
5742;SDS011;2896;53.500;10.020;2022-07-23T09:51:17;1.47;;;1.07;;
5742;SDS011;2896;53.500;10.020;2022-07-23T09:53:47;1.00;;;1.00;;
5742;SDS011;2896;53.500;10.020;2022-07-23T09:56:14;1.10;;;0.90;;
5742;SDS011;2896;53.500;10.020;2022-07-23T09:58:41;3.53;;;1.20;;
5742;SDS011;2896;53.500;10.020;2022-07-23T10:01:13;3.50;;;1.10;;
5742;SDS011;2896;53.500;10.020;2022-07-23T10:03:40;2.50;;;0.97;;
5742;SDS011;2896;53.500;10.020;2022-07-23T10:06:07;1.23;;;0.83;;
5742;SDS011;2896;53.500;10.020;2022-07-23T10:08:35;1.00;;;1.00;;
5742;SDS011;2896;53.500;10.020;2022-07-23T10:11:04;2.33;;;1.17;;
5742;SDS011;2896;53.500;10.020;2022-07-23T10:13:31;1.10;;;1.10;;
5742;SDS011;2896;53.500;10.020;2022-07-23T10:16:19;4.97;;;1.87;;
5742;SDS011;2896;53.500;10.020;2022-07-23T10:18:47;4.77;;;1.10;;
5742;SDS011;2896;53.500;10.020;2022-07-23T10:21:16;0.70;;;0.70;;
5742;SDS011;2896;53.500;10.020;2022-07-23T10:23:47;2.97;;;0.93;;
5742;SDS011;2896;53.500;10.020;2022-07-23T10:26:27;0.80;;;0.80;;
5742;SDS011;2896;53.500;10.020;2022-07-23T10:29:02;2.73;;;1.23;;
5742;SDS011;2896;53.500;10.020;2022-07-23T10:31:41;0.70;;;0.70;;
5742;SDS011;2896;53.500;10.020;2022-07-23T10:34:16;1.00;;;0.90;;
5742;SDS011;2896;53.500;10.020;2022-07-23T10:36:48;6.53;;;1.00;;
5742;SDS011;2896;53.500;10.020;2022-07-23T10:39:19;0.80;;;0.80;;
5742;SDS011;2896;53.500;10.020;2022-07-23T10:41:51;0.70;;;0.70;;
5742;SDS011;2896;53.500;10.020;2022-07-23T10:44:19;1.33;;;0.70;;
5742;SDS011;2896;53.500;10.020;2022-07-23T10:46:58;1.57;;;0.70;;
5742;SDS011;2896;53.500;10.020;2022-07-23T10:49:52;3.07;;;1.27;;
5742;SDS011;2896;53.500;10.020;2022-07-23T10:52:20;0.80;;;0.80;;
5742;SDS011;2896;53.500;10.020;2022-07-23T10:54:50;2.00;;;1.47;;
5742;SDS011;2896;53.500;10.020;2022-07-23T10:57:20;1.70;;;0.80;;
5742;SDS011;2896;53.500;10.020;2022-07-23T11:02:43;0.83;;;0.60;;
5742;SDS011;2896;53.500;10.020;2022-07-23T11:05:12;2.67;;;0.80;;
5742;SDS011;2896;53.500;10.020;2022-07-23T11:10:40;0.80;;;0.80;;
5742;SDS011;2896;53.500;10.020;2022-07-23T11:13:32;0.80;;;0.80;;
5742;SDS011;2896;53.500;10.020;2022-07-23T11:16:06;0.93;;;0.90;;
5742;SDS011;2896;53.500;10.020;2022-07-23T11:21:40;3.73;;;0.80;;
5742;SDS011;2896;53.500;10.020;2022-07-23T11:24:15;1.17;;;0.80;;
5742;SDS011;2896;53.500;10.020;2022-07-23T11:26:45;3.93;;;0.83;;
5742;SDS011;2896;53.500;10.020;2022-07-23T11:29:46;3.90;;;0.80;;
5742;SDS011;2896;53.500;10.020;2022-07-23T11:32:22;0.60;;;0.60;;
5742;SDS011;2896;53.500;10.020;2022-07-23T11:34:51;1.13;;;0.60;;
5742;SDS011;2896;53.500;10.020;2022-07-23T11:40:10;0.90;;;0.87;;
5742;SDS011;2896;53.500;10.020;2022-07-23T11:42:39;0.70;;;0.70;;
5742;SDS011;2896;53.500;10.020;2022-07-23T11:45:08;1.30;;;0.70;;
5742;SDS011;2896;53.500;10.020;2022-07-23T11:47:35;0.90;;;0.90;;
5742;SDS011;2896;53.500;10.020;2022-07-23T11:50:03;3.27;;;1.37;;
5742;SDS011;2896;53.500;10.020;2022-07-23T11:52:32;1.07;;;0.90;;
5742;SDS011;2896;53.500;10.020;2022-07-23T11:54:59;0.70;;;0.70;;
5742;SDS011;2896;53.500;10.020;2022-07-23T11:57:27;0.80;;;0.60;;
5742;SDS011;2896;53.500;10.020;2022-07-23T11:59:56;3.40;;;0.97;;
5742;SDS011;2896;53.500;10.020;2022-07-23T12:02:25;0.90;;;0.80;;
5742;SDS011;2896;53.500;10.020;2022-07-23T12:04:52;1.10;;;1.00;;
5742;SDS011;2896;53.500;10.020;2022-07-23T12:07:26;2.10;;;1.00;;
5742;SDS011;2896;53.500;10.020;2022-07-23T12:09:55;2.20;;;1.10;;
5742;SDS011;2896;53.500;10.020;2022-07-23T12:12:23;3.03;;;1.20;;
5742;SDS011;2896;53.500;10.020;2022-07-23T12:14:50;2.13;;;0.93;;
5742;SDS011;2896;53.500;10.020;2022-07-23T12:17:18;1.20;;;1.10;;
5742;SDS011;2896;53.500;10.020;2022-07-23T12:19:47;1.53;;;1.00;;
5742;SDS011;2896;53.500;10.020;2022-07-23T12:22:14;4.10;;;1.27;;
5742;SDS011;2896;53.500;10.020;2022-07-23T12:24:54;5.67;;;1.53;;
5742;SDS011;2896;53.500;10.020;2022-07-23T12:27:22;3.13;;;1.30;;
5742;SDS011;2896;53.500;10.020;2022-07-23T12:29:50;2.73;;;0.80;;
5742;SDS011;2896;53.500;10.020;2022-07-23T12:32:18;1.70;;;1.17;;
5742;SDS011;2896;53.500;10.020;2022-07-23T12:35:01;5.43;;;1.97;;
5742;SDS011;2896;53.500;10.020;2022-07-23T12:37:31;30.03;;;2.93;;
5742;SDS011;2896;53.500;10.020;2022-07-23T12:39:58;4.97;;;1.60;;
5742;SDS011;2896;53.500;10.020;2022-07-23T12:42:45;7.30;;;1.30;;
5742;SDS011;2896;53.500;10.020;2022-07-23T12:45:12;3.90;;;1.70;;
5742;SDS011;2896;53.500;10.020;2022-07-23T12:47:56;1.20;;;1.03;;
5742;SDS011;2896;53.500;10.020;2022-07-23T12:50:33;3.60;;;1.30;;
5742;SDS011;2896;53.500;10.020;2022-07-23T12:53:05;5.10;;;1.33;;
5742;SDS011;2896;53.500;10.020;2022-07-23T12:55:34;2.57;;;1.40;;
5742;SDS011;2896;53.500;10.020;2022-07-23T12:58:04;1.90;;;1.70;;
5742;SDS011;2896;53.500;10.020;2022-07-23T13:00:34;6.17;;;2.00;;
5742;SDS011;2896;53.500;10.020;2022-07-23T13:03:22;3.17;;;1.40;;
5742;SDS011;2896;53.500;10.020;2022-07-23T13:05:51;1.17;;;1.00;;
5742;SDS011;2896;53.500;10.020;2022-07-23T13:08:18;1.33;;;1.00;;
5742;SDS011;2896;53.500;10.020;2022-07-23T13:10:46;6.37;;;1.60;;
5742;SDS011;2896;53.500;10.020;2022-07-23T13:13:13;1.63;;;1.17;;
5742;SDS011;2896;53.500;10.020;2022-07-23T13:15:40;2.20;;;1.40;;
5742;SDS011;2896;53.500;10.020;2022-07-23T13:18:07;2.60;;;1.23;;
5742;SDS011;2896;53.500;10.020;2022-07-23T13:20:33;3.33;;;2.00;;
5742;SDS011;2896;53.500;10.020;2022-07-23T13:23:02;1.63;;;1.53;;
5742;SDS011;2896;53.500;10.020;2022-07-23T13:25:29;3.67;;;1.67;;
5742;SDS011;2896;53.500;10.020;2022-07-23T13:27:55;7.33;;;1.30;;
5742;SDS011;2896;53.500;10.020;2022-07-23T13:30:22;1.20;;;1.10;;
5742;SDS011;2896;53.500;10.020;2022-07-23T13:32:49;1.53;;;1.13;;
5742;SDS011;2896;53.500;10.020;2022-07-23T13:35:15;1.73;;;1.30;;
5742;SDS011;2896;53.500;10.020;2022-07-23T13:37:42;1.70;;;0.90;;
5742;SDS011;2896;53.500;10.020;2022-07-23T13:40:10;1.83;;;1.30;;
5742;SDS011;2896;53.500;10.020;2022-07-23T13:42:38;1.70;;;1.00;;
5742;SDS011;2896;53.500;10.020;2022-07-23T13:45:05;1.17;;;1.07;;
5742;SDS011;2896;53.500;10.020;2022-07-23T13:47:33;1.03;;;0.93;;
5742;SDS011;2896;53.500;10.020;2022-07-23T13:49:59;2.53;;;1.47;;
5742;SDS011;2896;53.500;10.020;2022-07-23T13:52:26;5.33;;;1.30;;
5742;SDS011;2896;53.500;10.020;2022-07-23T13:54:53;2.93;;;1.13;;
5742;SDS011;2896;53.500;10.020;2022-07-23T13:57:21;2.50;;;1.30;;
5742;SDS011;2896;53.500;10.020;2022-07-23T13:59:47;1.33;;;1.23;;
5742;SDS011;2896;53.500;10.020;2022-07-23T14:02:14;2.57;;;1.20;;
5742;SDS011;2896;53.500;10.020;2022-07-23T14:04:43;2.30;;;1.20;;
5742;SDS011;2896;53.500;10.020;2022-07-23T14:07:09;1.77;;;1.00;;
5742;SDS011;2896;53.500;10.020;2022-07-23T14:09:36;3.07;;;1.03;;
5742;SDS011;2896;53.500;10.020;2022-07-23T14:12:03;1.27;;;1.17;;
5742;SDS011;2896;53.500;10.020;2022-07-23T14:14:31;1.37;;;0.90;;
5742;SDS011;2896;53.500;10.020;2022-07-23T14:16:58;1.43;;;0.80;;
5742;SDS011;2896;53.500;10.020;2022-07-23T14:19:25;1.30;;;1.20;;
5742;SDS011;2896;53.500;10.020;2022-07-23T14:21:52;2.20;;;1.30;;
5742;SDS011;2896;53.500;10.020;2022-07-23T14:24:18;0.90;;;0.90;;
5742;SDS011;2896;53.500;10.020;2022-07-23T14:26:45;4.20;;;1.27;;
5742;SDS011;2896;53.500;10.020;2022-07-23T14:29:12;3.47;;;1.37;;
5742;SDS011;2896;53.500;10.020;2022-07-23T14:31:41;2.20;;;1.20;;
5742;SDS011;2896;53.500;10.020;2022-07-23T14:34:07;3.37;;;1.50;;
5742;SDS011;2896;53.500;10.020;2022-07-23T14:36:34;2.43;;;1.40;;
5742;SDS011;2896;53.500;10.020;2022-07-23T14:39:01;5.23;;;1.37;;
5742;SDS011;2896;53.500;10.020;2022-07-23T14:41:28;3.10;;;1.03;;
5742;SDS011;2896;53.500;10.020;2022-07-23T14:43:54;1.17;;;1.17;;
5742;SDS011;2896;53.500;10.020;2022-07-23T14:46:21;1.57;;;1.10;;
5742;SDS011;2896;53.500;10.020;2022-07-23T14:48:49;1.63;;;1.53;;
5742;SDS011;2896;53.500;10.020;2022-07-23T14:51:16;2.03;;;1.10;;
5742;SDS011;2896;53.500;10.020;2022-07-23T14:53:42;1.03;;;1.00;;
5742;SDS011;2896;53.500;10.020;2022-07-23T14:56:09;1.60;;;1.50;;
5742;SDS011;2896;53.500;10.020;2022-07-23T14:58:36;1.27;;;1.13;;
5742;SDS011;2896;53.500;10.020;2022-07-23T15:01:02;5.50;;;1.50;;
5742;SDS011;2896;53.500;10.020;2022-07-23T15:03:29;1.10;;;1.00;;
5742;SDS011;2896;53.500;10.020;2022-07-23T15:05:57;6.10;;;1.10;;
5742;SDS011;2896;53.500;10.020;2022-07-23T15:08:24;4.50;;;1.10;;
5742;SDS011;2896;53.500;10.020;2022-07-23T15:10:51;2.30;;;1.37;;
5742;SDS011;2896;53.500;10.020;2022-07-23T15:13:18;1.20;;;1.13;;
5742;SDS011;2896;53.500;10.020;2022-07-23T15:15:44;1.20;;;1.10;;
5742;SDS011;2896;53.500;10.020;2022-07-23T15:18:11;6.13;;;0.90;;